Palau, PW

1:12 PM +09 on January 16, 2019 (GMT +0900)
Guam International | | Change Station

Elev 295 ft 13.48 °N, 144.80 °E | Updated 18 minutes ago

Mostly Cloudy
Mostly Cloudy
82 °F
Feels Like 92 °F
N
15
Wind Variable Wind from NE

Today
High -- | Low -- °F
--% Chance of Precip.
Yesterday
High -- | Low -- °F
Precip. -- in
Pressure 29.80 in
Visibility 7.0 miles
Clouds Mostly Cloudy 3000 ft
Heat Index 92 °F
Dew Point 79 °F
Humidity 90%
Rainfall 0.00 in
Snow Depth Not available.
6:19 AM 6:04 PM
Waxing Gibbous, 69% visible
METAR PGUM 160354Z 05013KT 7SM BKN030 28/26 A2982 RMK AO2 RAB0257E48 SLP090 P0000 T02780261 $
Pressure 29.80 in
Visibility 7.0 miles
Clouds Mostly Cloudy 3000 ft
Heat Index 92 °F
Dew Point 79 °F
Humidity 90%
Rainfall 0.00 in
Snow Depth Not available.
6:19 AM 6:04 PM
Waxing Gibbous, 69% visible
METAR PGUM 160354Z 05013KT 7SM BKN030 28/26 A2982 RMK AO2 RAB0257E48 SLP090 P0000 T02780261 $

Get Severe Weather Alerts

Thanks for signing up!

Be on the lookout for a verification email in your inbox.

You'll start receiving the daily forecast at 6 AM.

×

10-Day Weather Forecast

Almanac

Astronomy

Jan. 16, 2019 Rise Set
Actual Time
Civil Twilight
Nautical Twilight
Astronomical Twilight
Moon
Length of Visible Light
Length of Day
Tomorrow will be .
, % of the Moon is Illuminated

Today's Extremes

State Highs State Lows

Community

WunderPhotos

Category 6

Welcome to Category 6. This is the collective home for Weather Underground's featured writeups by Dr. Jeff Masters (right), Bob Henson (left), Chris Burt, and other regular contributors.

Nearby

Air Quality

  Air Quality AQ Index Pollutant
Not available.

Snow Depth

Station Depth Elevation

Earthquake Activity

City Distance Mag. Time & Date
Minimum magnitude displayed is 2.5.

Coastal Water Temperatures

Place Temperature

Stations

Nearby Weather Stations

Station Location Temp. Windchill Dew Point Humidity Wind Precip. Elev Updated Type
                   

Watches & Warnings

There are currently no watches in effect.